Time;durP1;ratioP1;P1;durP2;ratioP2;P2;SDS_P1;SDS_P2;PMS_P1;PMS_P2;Temp;Humidity;BMP_temperature;BMP_pressure;BME280_temperature;BME280_humidity;BME280_pressure;Samples;Min_cycle;Max_cycle;Signal;HPM_P1;HPM_P2
2022/03/08 00:00:18;;;;;;;4.32;3.10;;;2.10;99.90;;;;;;4877454;29;20049;-78
2022/03/08 00:02:43;;;;;;;5.63;3.65;;;2.00;99.90;;;;;;4874832;29;20566;-79
2022/03/08 00:05:09;;;;;;;5.97;3.30;;;2.10;99.90;;;;;;4876471;29;20097;-79
2022/03/08 00:07:35;;;;;;;5.35;3.65;;;2.00;99.90;;;;;;4883280;29;20301;-79
2022/03/08 00:10:01;;;;;;;7.60;4.20;;;2.00;99.90;;;;;;4878493;29;20124;-79
2022/03/08 00:12:26;;;;;;;6.93;4.15;;;2.00;99.90;;;;;;4862772;29;20040;-79
2022/03/08 00:14:52;;;;;;;6.30;3.47;;;1.90;99.90;;;;;;4861122;29;20416;-78
2022/03/08 00:17:18;;;;;;;6.38;3.83;;;1.90;99.90;;;;;;4860657;29;20124;-78
2022/03/08 00:19:43;;;;;;;5.97;3.60;;;1.80;99.90;;;;;;4873653;29;20045;-78
2022/03/08 00:22:09;;;;;;;7.13;3.60;;;1.80;99.90;;;;;;4875110;29;20434;-78
2022/03/08 00:24:35;;;;;;;5.72;3.72;;;1.80;99.90;;;;;;4861138;29;20045;-78
2022/03/08 00:27:00;;;;;;;6.53;3.80;;;1.70;99.90;;;;;;4860634;29;20045;-77
2022/03/08 00:29:26;;;;;;;5.35;3.70;;;1.70;99.90;;;;;;4860751;29;20044;-79
2022/03/08 00:31:51;;;;;;;5.20;3.50;;;1.60;99.90;;;;;;4843101;29;20116;-78
2022/03/08 00:34:17;;;;;;;5.63;3.57;;;1.60;99.90;;;;;;4875631;29;20298;-78
2022/03/08 00:36:43;;;;;;;4.93;3.28;;;1.50;99.90;;;;;;4876660;29;20532;-77
2022/03/08 00:39:09;;;;;;;6.15;3.67;;;1.50;99.90;;;;;;4860789;29;20060;-77
2022/03/08 00:41:34;;;;;;;6.97;3.70;;;1.50;99.90;;;;;;4861329;29;20512;-78
2022/03/08 00:44:00;;;;;;;4.50;3.35;;;1.40;99.90;;;;;;4876542;29;20540;-77
2022/03/08 00:46:26;;;;;;;5.45;3.20;;;1.40;99.90;;;;;;4875786;29;20045;-79
2022/03/08 00:48:51;;;;;;;3.88;2.38;;;1.30;99.90;;;;;;4861054;29;20041;-78
2022/03/08 00:51:17;;;;;;;4.78;2.97;;;1.20;99.90;;;;;;4858908;29;20045;-77
2022/03/08 00:53:43;;;;;;;4.70;2.90;;;1.10;99.90;;;;;;4838328;29;20471;-77
2022/03/08 00:56:09;;;;;;;5.05;3.30;;;1.10;99.90;;;;;;4860222;29;20117;-77
2022/03/08 00:58:36;;;;;;;6.95;3.95;;;1.10;99.90;;;;;;4875851;29;20393;-78
2022/03/08 01:01:03;;;;;;;6.95;3.85;;;1.00;99.90;;;;;;4876525;29;20120;-78
2022/03/08 01:03:29;;;;;;;5.72;3.60;;;1.00;99.90;;;;;;4845146;29;20045;-78
2022/03/08 01:05:54;;;;;;;5.30;3.10;;;1.00;99.90;;;;;;4860987;29;20367;-79
2022/03/08 01:08:20;;;;;;;4.43;3.03;;;0.90;99.90;;;;;;4875295;29;20052;-78
2022/03/08 01:10:46;;;;;;;5.13;3.17;;;0.80;99.90;;;;;;4843200;29;20790;-78
2022/03/08 01:13:11;;;;;;;5.07;3.22;;;0.80;99.90;;;;;;4877256;29;20305;-78
2022/03/08 01:15:37;;;;;;;6.73;4.10;;;0.70;99.90;;;;;;4860291;29;20075;-78
2022/03/08 01:18:03;;;;;;;5.63;3.53;;;0.70;99.90;;;;;;4873003;29;20360;-78
2022/03/08 01:20:29;;;;;;;4.70;3.15;;;0.70;99.90;;;;;;4872208;29;20300;-78
2022/03/08 01:22:55;;;;;;;4.68;3.17;;;0.60;99.90;;;;;;4844619;29;20056;-79
2022/03/08 01:25:22;;;;;;;4.95;3.80;;;0.60;99.90;;;;;;4860607;29;20033;-78
2022/03/08 01:27:49;;;;;;;5.93;4.05;;;0.60;99.90;;;;;;4877310;29;20101;-78
2022/03/08 01:30:18;;;;;;;8.73;4.18;;;0.70;99.90;;;;;;4879165;29;20040;-78
2022/03/08 01:32:44;;;;;;;8.70;5.30;;;0.70;99.90;;;;;;4879137;29;20498;-78
2022/03/08 01:35:11;;;;;;;6.78;4.60;;;0.80;99.90;;;;;;4860872;29;20190;-77
2022/03/08 01:37:36;;;;;;;6.75;4.80;;;0.80;99.90;;;;;;4862211;29;20425;-77
2022/03/08 01:40:05;;;;;;;7.18;5.30;;;0.90;99.90;;;;;;4863092;29;20053;-77
2022/03/08 01:42:31;;;;;;;6.85;4.80;;;0.90;99.90;;;;;;4868547;29;20052;-76
2022/03/08 01:44:57;;;;;;;7.78;5.20;;;0.90;99.90;;;;;;4848482;29;20056;-77
2022/03/08 01:47:24;;;;;;;8.45;5.13;;;1.00;99.90;;;;;;4847985;29;20033;-77
2022/03/08 01:49:51;;;;;;;10.23;6.43;;;1.00;99.90;;;;;;4863089;29;20124;-77
2022/03/08 01:52:20;;;;;;;10.90;6.57;;;1.10;99.90;;;;;;4861856;29;20043;-77
2022/03/08 01:54:47;;;;;;;11.25;6.13;;;1.00;99.90;;;;;;4861391;29;20490;-77
2022/03/08 01:57:13;;;;;;;8.07;5.85;;;1.00;99.90;;;;;;4844945;29;20124;-77
2022/03/08 01:59:39;;;;;;;8.65;5.43;;;1.00;99.90;;;;;;4874821;29;20065;-77
2022/03/08 02:02:06;;;;;;;7.65;4.90;;;1.00;99.90;;;;;;4847300;29;20481;-77
2022/03/08 02:04:32;;;;;;;7.32;5.22;;;1.00;99.90;;;;;;4862291;29;20060;-77
2022/03/08 02:07:00;;;;;;;6.43;4.40;;;1.00;99.90;;;;;;4860024;29;20049;-79
2022/03/08 02:09:26;;;;;;;9.48;5.70;;;0.90;99.90;;;;;;4860545;29;20112;-79
2022/03/08 02:11:51;;;;;;;9.73;5.60;;;0.80;99.90;;;;;;4848568;29;20128;-79
2022/03/08 02:14:18;;;;;;;10.27;6.05;;;0.80;99.90;;;;;;4861473;29;20044;-79
2022/03/08 02:16:44;;;;;;;10.98;7.10;;;0.80;99.90;;;;;;4846687;29;20041;-79
2022/03/08 02:19:10;;;;;;;;;;;0.80;99.90;;;;;;4846397;29;20069;-80
2022/03/08 02:21:36;;;;;;;10.38;6.70;;;0.80;99.90;;;;;;4858249;29;19975;-80
2022/03/08 02:24:02;;;;;;;10.23;6.95;;;0.80;99.90;;;;;;4833319;29;20045;-80
2022/03/08 02:26:27;;;;;;;8.90;6.45;;;0.80;99.90;;;;;;4860823;29;20046;-79
2022/03/08 02:28:54;;;;;;;11.43;6.47;;;0.90;99.90;;;;;;4847684;29;20045;-79
2022/03/08 02:31:19;;;;;;;8.40;6.10;;;0.90;99.90;;;;;;4828641;29;20389;-79
2022/03/08 02:33:45;;;;;;;9.23;5.95;;;0.90;99.90;;;;;;4854243;29;20049;-79
2022/03/08 02:36:11;;;;;;;7.50;5.75;;;0.80;99.90;;;;;;4848198;29;20048;-79
2022/03/08 02:38:37;;;;;;;8.77;5.97;;;0.80;99.90;;;;;;4854877;29;20088;-79
2022/03/08 02:41:03;;;;;;;9.20;5.38;;;0.80;99.90;;;;;;4878978;29;20053;-79
2022/03/08 02:43:29;;;;;;;6.53;5.10;;;0.80;99.90;;;;;;4864156;29;20056;-80
2022/03/08 02:45:55;;;;;;;9.57;6.00;;;0.70;99.90;;;;;;4877366;29;20041;-80
2022/03/08 02:48:24;;;;;;;9.57;6.30;;;0.70;99.90;;;;;;4864053;29;20044;-79
2022/03/08 02:50:50;;;;;;;10.88;5.95;;;0.70;99.90;;;;;;4862992;29;20282;-79
2022/03/08 02:53:16;;;;;;;8.20;5.70;;;0.70;99.90;;;;;;4874165;29;20207;-80
2022/03/08 02:55:41;;;;;;;7.80;5.60;;;0.70;99.90;;;;;;4877144;29;20553;-79
2022/03/08 02:58:07;;;;;;;9.07;5.78;;;0.70;99.90;;;;;;4861414;29;20095;-79
2022/03/08 03:00:34;;;;;;;8.27;5.55;;;0.60;99.90;;;;;;4875027;29;20049;-79
2022/03/08 03:03:00;;;;;;;;;;;0.60;99.90;;;;;;4875228;29;20057;-80
2022/03/08 03:05:25;;;;;;;8.38;5.30;;;0.60;99.90;;;;;;4876704;29;19935;-79
2022/03/08 03:07:51;;;;;;;8.02;5.70;;;0.60;99.90;;;;;;4877201;29;20051;-79
2022/03/08 03:10:20;;;;;;;7.72;4.65;;;0.50;99.90;;;;;;4866886;29;20122;-80
2022/03/08 03:12:46;;;;;;;8.95;6.15;;;0.50;99.90;;;;;;4876207;29;20124;-80
2022/03/08 03:15:14;;;;;;;8.20;5.70;;;0.50;99.90;;;;;;4883712;29;20119;-80
2022/03/08 03:17:41;;;;;;;10.82;6.68;;;0.50;99.90;;;;;;4866482;29;20455;-78
2022/03/08 03:20:07;;;;;;;;;;;0.50;99.90;;;;;;4879903;29;20141;-79
2022/03/08 03:22:34;;;;;;;10.95;7.05;;;0.50;99.90;;;;;;4863190;29;19976;-79
2022/03/08 03:24:59;;;;;;;7.15;5.32;;;0.50;99.90;;;;;;4862868;29;20076;-80
2022/03/08 03:27:25;;;;;;;9.63;6.50;;;0.40;99.90;;;;;;4872956;29;20084;-80
2022/03/08 03:29:51;;;;;;;10.02;6.32;;;0.40;99.90;;;;;;4864358;29;20946;-79
2022/03/08 03:32:19;;;;;;;10.57;6.60;;;0.40;99.90;;;;;;4878014;29;20096;-79
2022/03/08 03:34:45;;;;;;;9.07;6.53;;;0.40;99.90;;;;;;4860305;29;20136;-79
2022/03/08 03:37:11;;;;;;;8.88;6.63;;;0.40;99.90;;;;;;4839628;29;20057;-80
2022/03/08 03:39:37;;;;;;;8.98;6.40;;;0.40;99.90;;;;;;4884082;29;20060;-80
2022/03/08 03:42:04;;;;;;;10.00;7.05;;;0.30;99.90;;;;;;4862721;29;20056;-79
2022/03/08 03:44:29;;;;;;;8.23;6.00;;;0.30;99.90;;;;;;4878476;29;20656;-79
2022/03/08 03:46:56;;;;;;;11.07;7.05;;;0.30;99.90;;;;;;4860035;29;20190;-79
2022/03/08 03:49:21;;;;;;;11.95;7.40;;;0.30;99.90;;;;;;4861449;29;20045;-78
2022/03/08 03:51:50;;;;;;;9.57;6.90;;;0.30;99.90;;;;;;4871539;29;20067;-79
2022/03/08 03:54:18;;;;;;;12.00;8.05;;;0.30;99.90;;;;;;4863922;29;20049;-78
2022/03/08 03:56:44;;;;;;;9.40;6.55;;;0.30;99.90;;;;;;4859426;29;20521;-79
2022/03/08 03:59:10;;;;;;;10.50;7.18;;;0.30;99.90;;;;;;4860192;29;20046;-78
2022/03/08 04:01:35;;;;;;;12.27;7.75;;;0.30;99.90;;;;;;4877633;29;20051;-79
2022/03/08 04:04:01;;;;;;;11.80;7.30;;;0.30;99.90;;;;;;4869209;29;20125;-79
2022/03/08 04:06:27;;;;;;;11.13;7.00;;;0.40;99.90;;;;;;4877694;29;20437;-80
2022/03/08 04:08:53;;;;;;;12.07;8.48;;;0.30;99.90;;;;;;4877904;29;20120;-79
2022/03/08 04:11:18;;;;;;;11.02;7.70;;;0.40;99.90;;;;;;4884070;29;20058;-79
2022/03/08 04:13:44;;;;;;;11.23;7.70;;;0.40;99.90;;;;;;4862597;29;20044;-79
2022/03/08 04:16:10;;;;;;;10.33;7.23;;;0.40;99.90;;;;;;4878320;29;20041;-79
2022/03/08 04:18:36;;;;;;;10.02;7.53;;;0.40;99.90;;;;;;4875374;29;20794;-77
2022/03/08 04:21:02;;;;;;;11.68;8.52;;;0.30;99.90;;;;;;4875834;29;20084;-78
2022/03/08 04:23:27;;;;;;;11.18;7.88;;;0.40;99.90;;;;;;4877823;29;20069;-79
2022/03/08 04:25:53;;;;;;;13.00;8.40;;;0.40;99.90;;;;;;4862725;29;20041;-79
2022/03/08 04:28:19;;;;;;;10.63;7.07;;;0.30;99.90;;;;;;4861495;29;20053;-80
2022/03/08 04:30:45;;;;;;;13.50;8.00;;;0.40;99.90;;;;;;4862275;29;20516;-80
2022/03/08 04:33:11;;;;;;;13.05;8.10;;;0.40;99.90;;;;;;4858664;29;20046;-79
2022/03/08 04:35:36;;;;;;;12.07;8.70;;;0.40;99.90;;;;;;4862761;29;20052;-79
2022/03/08 04:38:03;;;;;;;13.18;8.63;;;0.40;99.90;;;;;;4855872;29;20106;-79
2022/03/08 04:40:30;;;;;;;15.43;8.27;;;0.40;99.90;;;;;;4860212;29;20049;-79
2022/03/08 04:42:55;;;;;;;11.55;7.90;;;0.30;99.90;;;;;;4862704;29;20084;-80
2022/03/08 04:45:21;;;;;;;10.68;7.47;;;0.30;99.90;;;;;;4877155;29;20153;-79
2022/03/08 04:47:49;;;;;;;11.73;8.18;;;0.30;99.90;;;;;;4880081;29;20033;-79
2022/03/08 04:50:16;;;;;;;12.15;8.00;;;0.20;99.90;;;;;;4845922;29;20041;-79
2022/03/08 04:52:44;;;;;;;9.80;6.78;;;0.20;99.90;;;;;;4876900;29;20086;-79
2022/03/08 04:55:10;;;;;;;10.60;7.53;;;0.20;99.90;;;;;;4874523;29;20088;-79
2022/03/08 04:57:36;;;;;;;11.10;7.72;;;0.10;99.90;;;;;;4891214;29;20397;-79
2022/03/08 05:00:04;;;;;;;11.07;7.47;;;0.10;99.90;;;;;;4874224;29;20041;-79
2022/03/08 05:02:29;;;;;;;12.80;7.97;;;0.10;99.90;;;;;;4879706;29;20052;-79
2022/03/08 05:04:56;;;;;;;8.93;5.80;;;0.10;99.90;;;;;;4865420;29;20045;-80
2022/03/08 05:07:22;;;;;;;13.95;8.23;;;0.10;99.90;;;;;;4881490;29;20045;-80
2022/03/08 05:09:47;;;;;;;12.85;8.75;;;0.10;99.90;;;;;;4866879;29;20890;-80
2022/03/08 05:12:14;;;;;;;15.57;9.35;;;0.10;99.90;;;;;;4867796;29;20044;-79
2022/03/08 05:14:40;;;;;;;14.07;9.20;;;0.20;99.90;;;;;;4865690;29;20083;-80
2022/03/08 05:17:06;;;;;;;13.68;8.32;;;0.20;99.90;;;;;;4881511;29;20040;-80
2022/03/08 05:19:31;;;;;;;13.15;8.75;;;0.20;99.90;;;;;;4877887;29;20446;-80
2022/03/08 05:21:57;;;;;;;13.80;8.73;;;0.20;99.90;;;;;;4872674;29;20117;-80
2022/03/08 05:24:23;;;;;;;14.98;9.55;;;0.20;99.90;;;;;;4861258;29;20075;-80
2022/03/08 05:26:49;;;;;;;13.25;8.77;;;0.20;99.90;;;;;;4880518;29;20063;-80
2022/03/08 05:29:15;;;;;;;11.77;8.20;;;0.20;99.90;;;;;;4865503;29;20048;-79
2022/03/08 05:31:40;;;;;;;13.63;8.55;;;0.10;99.90;;;;;;4864684;29;20044;-80
2022/03/08 05:34:06;;;;;;;19.02;10.10;;;0.10;99.90;;;;;;4838523;29;20097;-79
2022/03/08 05:36:33;;;;;;;14.48;9.30;;;0.10;99.90;;;;;;4861618;29;20044;-80
2022/03/08 05:38:58;;;;;;;;;;;0.00;99.90;;;;;;4880323;29;20053;-80
2022/03/08 05:41:24;;;;;;;13.90;8.82;;;0.00;99.90;;;;;;4861882;29;19927;-79
2022/03/08 05:43:50;;;;;;;12.70;8.65;;;0.00;99.90;;;;;;4877261;29;20108;-80
2022/03/08 05:46:15;;;;;;;13.80;9.10;;;0.00;99.90;;;;;;4864852;29;20397;-79
2022/03/08 05:48:41;;;;;;;13.35;8.40;;;0.00;99.90;;;;;;4880393;29;20085;-79
2022/03/08 05:51:07;;;;;;;13.98;9.23;;;0.00;99.90;;;;;;4864988;29;20481;-79
2022/03/08 05:53:32;;;;;;;15.80;9.82;;;0.00;99.90;;;;;;4880167;29;20044;-79
2022/03/08 05:55:58;;;;;;;13.15;8.98;;;0.00;99.90;;;;;;4878895;29;20430;-79
2022/03/08 05:58:24;;;;;;;13.65;9.48;;;0.00;99.90;;;;;;4880033;29;20056;-80
2022/03/08 06:00:49;;;;;;;16.07;10.30;;;0.00;99.90;;;;;;4865151;29;20052;-81
2022/03/08 06:03:15;;;;;;;15.47;9.63;;;0.00;99.90;;;;;;4873034;29;20312;-81
2022/03/08 06:05:41;;;;;;;16.30;10.13;;;0.00;99.90;;;;;;4888384;29;20388;-80
2022/03/08 06:08:06;;;;;;;16.20;10.37;;;0.00;99.90;;;;;;4880229;29;20033;-81
2022/03/08 06:10:32;;;;;;;14.30;9.73;;;0.00;99.90;;;;;;4866796;29;20223;-80
2022/03/08 06:12:58;;;;;;;13.95;9.00;;;0.10;99.90;;;;;;4871540;29;20044;-80
2022/03/08 06:15:24;;;;;;;15.20;10.02;;;0.00;99.90;;;;;;4867226;29;20049;-81
2022/03/08 06:17:50;;;;;;;15.55;9.82;;;0.00;99.90;;;;;;4861539;29;20050;-80
2022/03/08 06:20:16;;;;;;;18.50;10.38;;;0.00;99.90;;;;;;4877715;29;20044;-81
2022/03/08 06:22:42;;;;;;;15.00;9.15;;;0.00;99.90;;;;;;4860254;29;20439;-81
2022/03/08 06:25:08;;;;;;;14.23;9.55;;;0.00;99.90;;;;;;4877252;29;20128;-80
2022/03/08 06:27:34;;;;;;;17.17;10.77;;;0.00;99.90;;;;;;4865602;29;20088;-79
2022/03/08 06:30:01;;;;;;;15.90;10.75;;;0.00;99.90;;;;;;4861433;29;20044;-81
2022/03/08 06:32:26;;;;;;;15.93;9.88;;;0.00;99.90;;;;;;4859370;29;20038;-81
2022/03/08 06:34:52;;;;;;;15.90;9.77;;;0.10;99.90;;;;;;4853255;29;20052;-82
2022/03/08 06:37:18;;;;;;;16.08;10.45;;;0.10;99.90;;;;;;4863837;29;20049;-82
2022/03/08 06:39:45;;;;;;;16.40;10.13;;;0.10;99.90;;;;;;4863826;29;20417;-82
2022/03/08 06:42:11;;;;;;;18.08;11.30;;;0.10;99.90;;;;;;4876199;29;20041;-83
2022/03/08 06:44:39;;;;;;;17.42;10.20;;;0.20;99.90;;;;;;4890737;29;20193;-81
2022/03/08 06:47:09;;;;;;;16.75;10.10;;;0.20;99.90;;;;;;4862919;29;20036;-83
2022/03/08 06:49:38;;;;;;;16.90;10.98;;;0.20;99.90;;;;;;4883198;29;20037;-81
2022/03/08 06:52:05;;;;;;;15.93;9.95;;;0.30;99.90;;;;;;4879216;29;20045;-82
2022/03/08 06:54:31;;;;;;;17.60;10.77;;;0.30;99.90;;;;;;4863249;29;20378;-79
2022/03/08 06:56:56;;;;;;;16.55;10.93;;;0.30;99.90;;;;;;4878127;29;20044;-81
2022/03/08 06:59:23;;;;;;;15.80;11.00;;;0.40;99.90;;;;;;4878027;29;20544;-82
2022/03/08 07:01:48;;;;;;;15.60;10.40;;;0.50;99.90;;;;;;4861551;29;20049;-83
2022/03/08 07:04:14;;;;;;;15.70;10.27;;;0.50;99.90;;;;;;4873876;29;20532;-81
2022/03/08 07:06:40;;;;;;;12.67;8.37;;;0.60;99.90;;;;;;4868069;29;20113;-82
2022/03/08 07:09:06;;;;;;;16.58;10.25;;;0.60;99.90;;;;;;4856394;29;20308;-81
2022/03/08 07:11:35;;;;;;;16.95;10.43;;;0.70;99.90;;;;;;4843428;29;20093;-80
2022/03/08 07:14:01;;;;;;;18.70;10.75;;;0.80;99.90;;;;;;4874078;29;20116;-81
2022/03/08 07:16:27;;;;;;;18.08;10.00;;;0.90;99.90;;;;;;4871791;29;20144;-81
2022/03/08 07:18:52;;;;;;;17.15;10.43;;;0.90;99.90;;;;;;4858318;29;20889;-80
2022/03/08 07:21:18;;;;;;;21.20;11.10;;;1.00;99.90;;;;;;4854576;29;20101;-80
2022/03/08 07:23:44;;;;;;;17.87;11.53;;;1.10;99.90;;;;;;4870570;29;20325;-82
2022/03/08 07:26:09;;;;;;;16.88;10.15;;;1.20;99.90;;;;;;4858776;29;20453;-82
2022/03/08 07:28:35;;;;;;;20.85;10.98;;;1.30;99.90;;;;;;4868663;29;20689;-82
2022/03/08 07:31:01;;;;;;;19.17;11.25;;;1.40;99.90;;;;;;4875046;29;20117;-82
2022/03/08 07:33:27;;;;;;;15.45;10.43;;;1.50;99.90;;;;;;4873080;29;20044;-77
2022/03/08 07:35:53;;;;;;;15.98;10.77;;;1.60;99.90;;;;;;4852782;29;20343;-79
2022/03/08 07:38:18;;;;;;;18.03;11.87;;;1.70;99.90;;;;;;4839988;29;20105;-80
2022/03/08 07:40:44;;;;;;;17.27;10.90;;;1.90;99.90;;;;;;4843736;29;20817;-81
2022/03/08 07:43:10;;;;;;;16.92;10.93;;;2.20;99.90;;;;;;4836166;29;20045;-79
2022/03/08 07:45:36;;;;;;;15.47;10.07;;;2.40;99.90;;;;;;4855488;29;20052;-78
2022/03/08 07:48:05;;;;;;;14.73;9.70;;;2.70;99.90;;;;;;4869466;29;20309;-77
2022/03/08 07:50:31;;;;;;;16.20;9.82;;;2.80;99.90;;;;;;4858712;29;20127;-78
2022/03/08 07:52:59;;;;;;;14.23;10.00;;;3.00;99.90;;;;;;4869385;29;20501;-78
2022/03/08 07:55:27;;;;;;;13.15;9.68;;;3.10;99.90;;;;;;4874963;29;20057;-80
2022/03/08 07:57:53;;;;;;;14.15;8.77;;;3.30;99.90;;;;;;4854497;29;20132;-80
2022/03/08 08:00:18;;;;;;;13.23;9.90;;;3.40;99.90;;;;;;4854997;29;20136;-79
2022/03/08 08:02:44;;;;;;;16.63;9.45;;;3.60;99.90;;;;;;4852149;29;20045;-79
2022/03/08 08:05:10;;;;;;;11.73;8.50;;;3.80;99.90;;;;;;4870499;29;20088;-79
2022/03/08 08:07:36;;;;;;;12.23;8.90;;;3.90;99.90;;;;;;4857321;29;20071;-80
2022/03/08 08:10:02;;;;;;;12.43;8.80;;;4.00;99.90;;;;;;4870945;29;20041;-79
2022/03/08 08:12:28;;;;;;;11.32;8.73;;;4.10;99.90;;;;;;4873065;29;20053;-79
2022/03/08 08:14:53;;;;;;;10.98;8.23;;;4.30;99.90;;;;;;4855197;29;20055;-79
2022/03/08 08:17:19;;;;;;;13.77;8.07;;;4.40;99.90;;;;;;4874737;29;20485;-79
2022/03/08 08:19:45;;;;;;;10.82;8.52;;;4.50;99.90;;;;;;4856089;29;20458;-79
2022/03/08 08:22:10;;;;;;;11.52;7.75;;;4.50;99.90;;;;;;4857890;29;20125;-79
2022/03/08 08:24:36;;;;;;;11.45;8.20;;;4.50;99.90;;;;;;4851761;29;20494;-80
2022/03/08 08:27:02;;;;;;;12.07;8.20;;;4.60;99.90;;;;;;4856618;29;20037;-81
2022/03/08 08:29:28;;;;;;;11.00;8.10;;;4.50;99.90;;;;;;4852663;29;20120;-79
2022/03/08 08:31:53;;;;;;;11.18;8.18;;;4.50;99.90;;;;;;4856756;29;20052;-80
2022/03/08 08:34:19;;;;;;;11.37;7.97;;;4.50;99.90;;;;;;4870501;29;20048;-79
2022/03/08 08:36:47;;;;;;;11.05;8.48;;;4.50;99.90;;;;;;4867437;29;20329;-80
2022/03/08 08:39:17;;;;;;;9.77;8.00;;;4.60;99.90;;;;;;4871655;29;20057;-80
2022/03/08 08:41:48;;;;;;;10.38;7.60;;;4.60;99.90;;;;;;4859753;29;20517;-79
2022/03/08 08:44:14;;;;;;;9.45;7.38;;;4.60;99.90;;;;;;4855560;29;20037;-79
2022/03/08 08:46:40;;;;;;;13.13;7.93;;;4.70;99.90;;;;;;4864489;29;20053;-79
2022/03/08 08:49:06;;;;;;;11.23;8.55;;;4.70;99.90;;;;;;4857787;29;20041;-80
2022/03/08 08:51:32;;;;;;;10.40;7.88;;;4.80;99.90;;;;;;4873718;29;20044;-79
2022/03/08 08:53:58;;;;;;;;;;;4.80;99.90;;;;;;4843266;29;20045;-80
2022/03/08 08:56:24;;;;;;;10.88;7.57;;;4.90;99.90;;;;;;4849581;29;19920;-79
2022/03/08 08:58:50;;;;;;;10.18;7.63;;;5.00;99.90;;;;;;4873889;29;20056;-78
2022/03/08 09:01:16;;;;;;;11.70;8.63;;;5.10;99.90;;;;;;4856531;29;20531;-78
2022/03/08 09:03:41;;;;;;;9.98;6.95;;;5.10;99.90;;;;;;4849580;29;20073;-78
2022/03/08 09:06:07;;;;;;;9.77;7.60;;;5.20;99.90;;;;;;4859790;29;20044;-79
2022/03/08 09:08:33;;;;;;;9.07;6.80;;;5.30;99.90;;;;;;4875373;29;20085;-79
2022/03/08 09:10:59;;;;;;;13.23;8.65;;;5.40;99.90;;;;;;4859483;29;20100;-79
2022/03/08 09:13:25;;;;;;;11.25;7.60;;;5.50;99.90;;;;;;4859811;29;20150;-78
2022/03/08 09:15:51;;;;;;;10.05;7.47;;;5.60;99.90;;;;;;4859664;29;20040;-78
2022/03/08 09:18:17;;;;;;;11.32;7.75;;;5.70;99.90;;;;;;4842187;29;20121;-78
2022/03/08 09:20:43;;;;;;;10.45;7.82;;;5.70;99.90;;;;;;4852345;29;20053;-78
2022/03/08 09:23:09;;;;;;;;;;;5.70;99.70;;;;;;4861722;29;20049;-78
2022/03/08 09:25:36;;;;;;;9.18;7.25;;;5.80;99.80;;;;;;4858914;29;19978;-78
2022/03/08 09:28:02;;;;;;;;;;;5.80;99.90;;;;;;4860293;29;20389;-79
2022/03/08 09:30:28;;;;;;;11.95;7.80;;;5.80;99.90;;;;;;4859921;29;19927;-78
2022/03/08 09:32:58;;;;;;;12.20;7.70;;;5.90;99.90;;;;;;4875673;29;20086;-79
2022/03/08 09:35:28;;;;;;;10.77;7.65;;;6.00;99.90;;;;;;4875087;29;20045;-79
2022/03/08 09:37:54;;;;;;;10.70;7.50;;;6.10;99.90;;;;;;4859413;29;20080;-79
2022/03/08 09:40:21;;;;;;;11.23;7.85;;;6.10;99.90;;;;;;4874283;29;20331;-81
2022/03/08 09:42:49;;;;;;;10.25;7.68;;;6.10;99.90;;;;;;4845107;29;20374;-79
2022/03/08 09:45:15;;;;;;;9.63;7.32;;;6.20;99.60;;;;;;4853345;29;20182;-77
2022/03/08 09:47:41;;;;;;;10.45;7.60;;;6.20;99.40;;;;;;4854930;29;20573;-79
2022/03/08 09:50:08;;;;;;;8.98;6.80;;;6.30;99.80;;;;;;4871746;29;20157;-81
2022/03/08 09:52:36;;;;;;;8.07;6.30;;;6.30;99.00;;;;;;4860746;29;20049;-81
2022/03/08 09:55:03;;;;;;;8.93;6.85;;;6.40;99.60;;;;;;4871180;29;20060;-80
2022/03/08 09:57:29;;;;;;;9.30;7.22;;;6.60;99.80;;;;;;4859010;29;20053;-79
2022/03/08 09:59:56;;;;;;;9.60;6.72;;;6.70;98.20;;;;;;4871973;29;20129;-81
2022/03/08 10:02:24;;;;;;;8.98;6.93;;;6.80;98.10;;;;;;4873303;29;20041;-80
2022/03/08 10:05:06;;;;;;;8.15;6.43;;;6.90;96.30;;;;;;4891977;29;20077;-81
2022/03/08 10:07:33;;;;;;;7.80;6.47;;;6.90;97.10;;;;;;4875028;29;20485;-80
2022/03/08 10:09:59;;;;;;;8.93;6.80;;;7.00;96.30;;;;;;4862248;29;20125;-80
2022/03/08 10:12:26;;;;;;;9.48;6.82;;;7.10;95.60;;;;;;4878143;29;20056;-80
2022/03/08 10:14:52;;;;;;;8.48;6.35;;;7.00;95.10;;;;;;4861442;29;20045;-80
2022/03/08 10:17:33;;;;;;;7.65;6.05;;;7.10;95.60;;;;;;4877251;29;20059;-80
2022/03/08 10:19:59;;;;;;;9.88;6.07;;;7.20;94.70;;;;;;4869341;29;20133;-80
2022/03/08 10:22:29;;;;;;;8.27;5.85;;;7.40;95.00;;;;;;4873323;29;20086;-79
2022/03/08 10:25:16;;;;;;;9.80;6.32;;;7.40;95.10;;;;;;4871112;29;20129;-79
2022/03/08 10:27:52;;;;;;;7.63;5.82;;;7.50;93.80;;;;;;4878303;29;20089;-80
2022/03/08 10:30:18;;;;;;;7.57;5.70;;;7.60;94.00;;;;;;4857374;29;20056;-80
2022/03/08 10:32:46;;;;;;;7.80;5.57;;;7.60;93.50;;;;;;4872791;29;20037;-81
2022/03/08 10:35:21;;;;;;;7.15;5.50;;;7.80;93.40;;;;;;4864379;29;20080;-81
2022/03/08 10:37:47;;;;;;;7.57;5.70;;;7.90;92.90;;;;;;4863116;29;20413;-79
2022/03/08 10:40:30;;;;;;;8.60;5.53;;;8.10;92.30;;;;;;4842656;29;20049;-78
2022/03/08 10:43:01;;;;;;;7.25;5.40;;;8.10;91.50;;;;;;4835100;29;20045;-79
2022/03/08 10:45:29;;;;;;;7.55;5.63;;;8.30;92.20;;;;;;4861877;29;20049;-78
2022/03/08 10:47:55;;;;;;;8.20;5.30;;;8.40;91.60;;;;;;4860342;29;20044;-78
2022/03/08 10:50:23;;;;;;;9.43;5.28;;;8.60;91.70;;;;;;4821835;29;20553;-78
2022/03/08 10:52:51;;;;;;;6.97;5.00;;;8.80;90.20;;;;;;4851534;29;20060;-78
2022/03/08 10:55:20;;;;;;;6.43;5.38;;;9.10;89.80;;;;;;4854814;29;20037;-79
2022/03/08 10:57:54;;;;;;;7.05;4.72;;;9.20;88.60;;;;;;4831209;29;20076;-79
2022/03/08 11:00:31;;;;;;;8.20;4.88;;;9.30;87.10;;;;;;4852917;29;20132;-79
2022/03/08 11:02:59;;;;;;;6.43;4.63;;;9.50;87.60;;;;;;4858009;29;20093;-80
2022/03/08 11:05:28;;;;;;;5.90;4.30;;;9.70;88.80;;;;;;4853256;29;20041;-81
2022/03/08 11:07:57;;;;;;;6.00;4.10;;;9.90;87.20;;;;;;4835947;29;20361;-79
2022/03/08 11:10:24;;;;;;;6.75;4.70;;;10.20;86.90;;;;;;4849649;29;20038;-79
2022/03/08 11:12:54;;;;;;;7.00;4.57;;;10.30;84.20;;;;;;4857584;29;20041;-80
2022/03/08 11:15:21;;;;;;;5.88;4.10;;;10.30;83.10;;;;;;4828327;29;20056;-80
2022/03/08 11:17:50;;;;;;;5.43;4.03;;;10.40;84.30;;;;;;4850509;29;20760;-79
2022/03/08 11:20:17;;;;;;;7.43;4.75;;;10.60;83.90;;;;;;4857296;29;20397;-80
2022/03/08 11:22:44;;;;;;;6.65;4.47;;;10.60;81.80;;;;;;4855125;29;20049;-80
2022/03/08 11:25:12;;;;;;;6.75;4.35;;;10.60;81.10;;;;;;4872467;29;20049;-79
2022/03/08 11:27:40;;;;;;;8.85;4.63;;;10.60;80.70;;;;;;4854974;29;20037;-80
2022/03/08 11:30:09;;;;;;;5.13;4.13;;;10.50;80.10;;;;;;4854466;29;20139;-80
2022/03/08 11:32:41;;;;;;;5.93;4.63;;;10.60;80.70;;;;;;4853235;29;20045;-80
2022/03/08 11:35:08;;;;;;;8.70;4.47;;;10.70;80.40;;;;;;4860374;29;20057;-81
2022/03/08 11:37:35;;;;;;;;;;;10.90;79.10;;;;;;4847494;29;20752;-80
2022/03/08 11:40:30;;;;;;;;;;;10.90;76.70;;;;;;4869152;29;19924;-80
2022/03/08 11:43:03;;;;;;;6.00;3.80;;;10.90;76.60;;;;;;4861398;29;20038;-80
2022/03/08 11:45:31;;;;;;;6.53;4.25;;;11.10;77.20;;;;;;4873800;29;20148;-81
2022/03/08 11:48:09;;;;;;;7.10;4.10;;;11.10;76.30;;;;;;4877541;29;20253;-80
2022/03/08 11:50:39;;;;;;;6.72;4.05;;;10.90;76.00;;;;;;4859526;29;20037;-80
2022/03/08 11:53:05;;;;;;;5.78;4.45;;;10.90;76.30;;;;;;4875896;29;20464;-81
2022/03/08 11:55:37;;;;;;;5.30;4.05;;;10.80;76.20;;;;;;4873327;29;20045;-81
2022/03/08 11:58:13;;;;;;;4.57;4.10;;;11.00;76.80;;;;;;4885867;29;20041;-78
2022/03/08 12:00:50;;;;;;;7.38;5.15;;;11.10;76.60;;;;;;4876864;29;20056;-80
2022/03/08 12:03:23;;;;;;;5.13;4.13;;;11.00;76.30;;;;;;4869694;29;20081;-80
2022/03/08 12:05:48;;;;;;;5.80;4.30;;;11.00;76.70;;;;;;4863808;29;20053;-79
2022/03/08 12:08:29;;;;;;;4.78;4.03;;;11.10;76.90;;;;;;4870101;29;20366;-79
2022/03/08 12:11:05;;;;;;;4.93;4.40;;;11.20;76.60;;;;;;4873893;29;20045;-79
2022/03/08 12:13:35;;;;;;;5.05;3.80;;;11.20;76.40;;;;;;4873783;29;20048;-79
2022/03/08 12:16:10;;;;;;;6.63;4.00;;;11.20;76.00;;;;;;4858971;29;20047;-80
2022/03/08 12:18:39;;;;;;;5.03;3.50;;;11.10;75.30;;;;;;4860532;29;20184;-80
2022/03/08 12:21:14;;;;;;;5.68;3.72;;;11.30;75.30;;;;;;4860444;29;20067;-79
2022/03/08 12:24:02;;;;;;;6.35;3.80;;;11.50;76.50;;;;;;4875966;29;20044;-79
2022/03/08 12:26:34;;;;;;;5.13;3.60;;;11.40;74.30;;;;;;4875821;29;20052;-81
2022/03/08 12:29:10;;;;;;;4.38;3.85;;;11.40;74.30;;;;;;4876461;29;20131;-79
2022/03/08 12:31:58;;;;;;;4.20;3.53;;;11.50;74.20;;;;;;4875356;29;20145;-79
2022/03/08 12:34:32;;;;;;;;;;;11.50;74.10;;;;;;4857275;29;20186;-79
2022/03/08 12:37:07;;;;;;;5.78;3.70;;;11.40;73.30;;;;;;4857711;29;20395;-78
2022/03/08 12:39:59;;;;;;;3.95;3.22;;;11.50;73.40;;;;;;4875397;29;20132;-79
2022/03/08 12:42:41;;;;;;;4.88;3.50;;;11.50;72.90;;;;;;4875522;29;20136;-79
2022/03/08 12:45:17;;;;;;;4.38;3.45;;;11.50;73.80;;;;;;4875459;29;20081;-80
2022/03/08 12:47:53;;;;;;;3.90;3.50;;;11.70;74.10;;;;;;4873041;29;20454;-80
2022/03/08 12:50:22;;;;;;;5.32;3.10;;;11.90;74.00;;;;;;4863325;29;20049;-80
2022/03/08 12:52:54;;;;;;;4.82;3.45;;;12.10;73.30;;;;;;4875767;29;20423;-80